sensor_id;sensor_type;location;lat;lon;timestamp;P1;durP1;ratioP1;P2;durP2;ratioP2
2992;SDS011;1506;48.932;9.478;2023-02-01T00:00:35;6.47;;;5.77;;
2992;SDS011;1506;48.932;9.478;2023-02-01T00:03:03;8.70;;;5.00;;
2992;SDS011;1506;48.932;9.478;2023-02-01T00:05:31;5.33;;;4.87;;
2992;SDS011;1506;48.932;9.478;2023-02-01T00:07:59;4.40;;;4.10;;
2992;SDS011;1506;48.932;9.478;2023-02-01T00:10:26;5.73;;;4.93;;
2992;SDS011;1506;48.932;9.478;2023-02-01T00:12:53;5.10;;;4.37;;
2992;SDS011;1506;48.932;9.478;2023-02-01T00:15:21;5.90;;;5.27;;
2992;SDS011;1506;48.932;9.478;2023-02-01T00:17:53;3.70;;;3.50;;
2992;SDS011;1506;48.932;9.478;2023-02-01T00:20:21;5.53;;;5.03;;
2992;SDS011;1506;48.932;9.478;2023-02-01T00:22:48;7.27;;;3.33;;
2992;SDS011;1506;48.932;9.478;2023-02-01T00:25:16;4.30;;;3.77;;
2992;SDS011;1506;48.932;9.478;2023-02-01T00:27:43;3.43;;;3.13;;
2992;SDS011;1506;48.932;9.478;2023-02-01T00:30:16;5.03;;;3.57;;
2992;SDS011;1506;48.932;9.478;2023-02-01T00:32:45;3.37;;;3.17;;
2992;SDS011;1506;48.932;9.478;2023-02-01T00:35:12;5.87;;;4.57;;
2992;SDS011;1506;48.932;9.478;2023-02-01T00:37:39;3.20;;;2.37;;
2992;SDS011;1506;48.932;9.478;2023-02-01T00:40:07;4.50;;;4.13;;
2992;SDS011;1506;48.932;9.478;2023-02-01T00:42:35;4.17;;;3.80;;
2992;SDS011;1506;48.932;9.478;2023-02-01T00:45:02;3.80;;;3.23;;
2992;SDS011;1506;48.932;9.478;2023-02-01T00:47:31;4.13;;;3.73;;
2992;SDS011;1506;48.932;9.478;2023-02-01T00:49:58;3.53;;;3.33;;
2992;SDS011;1506;48.932;9.478;2023-02-01T00:52:26;3.90;;;3.60;;
2992;SDS011;1506;48.932;9.478;2023-02-01T00:54:53;4.30;;;3.00;;
2992;SDS011;1506;48.932;9.478;2023-02-01T00:57:21;3.43;;;2.77;;
2992;SDS011;1506;48.932;9.478;2023-02-01T00:59:48;3.17;;;3.07;;
2992;SDS011;1506;48.932;9.478;2023-02-01T01:02:15;3.80;;;3.43;;
2992;SDS011;1506;48.932;9.478;2023-02-01T01:04:43;3.50;;;3.20;;
2992;SDS011;1506;48.932;9.478;2023-02-01T01:07:10;2.40;;;2.30;;
2992;SDS011;1506;48.932;9.478;2023-02-01T01:09:38;2.40;;;2.30;;
2992;SDS011;1506;48.932;9.478;2023-02-01T01:12:05;2.40;;;2.30;;
2992;SDS011;1506;48.932;9.478;2023-02-01T01:14:32;2.20;;;2.10;;
2992;SDS011;1506;48.932;9.478;2023-02-01T01:17:00;2.60;;;2.40;;
2992;SDS011;1506;48.932;9.478;2023-02-01T01:19:27;3.93;;;3.73;;
2992;SDS011;1506;48.932;9.478;2023-02-01T01:21:54;2.93;;;2.77;;
2992;SDS011;1506;48.932;9.478;2023-02-01T01:24:21;1.90;;;1.80;;
2992;SDS011;1506;48.932;9.478;2023-02-01T01:26:49;3.37;;;3.17;;
2992;SDS011;1506;48.932;9.478;2023-02-01T01:29:16;3.30;;;2.93;;
2992;SDS011;1506;48.932;9.478;2023-02-01T01:31:44;3.73;;;3.30;;
2992;SDS011;1506;48.932;9.478;2023-02-01T01:34:11;5.40;;;2.10;;
2992;SDS011;1506;48.932;9.478;2023-02-01T01:36:38;2.90;;;2.80;;
2992;SDS011;1506;48.932;9.478;2023-02-01T01:39:06;2.60;;;2.50;;
2992;SDS011;1506;48.932;9.478;2023-02-01T01:41:34;5.80;;;2.67;;
2992;SDS011;1506;48.932;9.478;2023-02-01T01:47:25;3.40;;;3.10;;
2992;SDS011;1506;48.932;9.478;2023-02-01T01:50:12;5.37;;;2.70;;
2992;SDS011;1506;48.932;9.478;2023-02-01T01:52:43;1.90;;;1.80;;
2992;SDS011;1506;48.932;9.478;2023-02-01T01:55:13;5.30;;;2.90;;
2992;SDS011;1506;48.932;9.478;2023-02-01T01:57:44;3.00;;;2.80;;
2992;SDS011;1506;48.932;9.478;2023-02-01T02:00:18;4.47;;;2.80;;
2992;SDS011;1506;48.932;9.478;2023-02-01T02:02:50;2.47;;;2.27;;
2992;SDS011;1506;48.932;9.478;2023-02-01T02:05:23;2.50;;;2.40;;
2992;SDS011;1506;48.932;9.478;2023-02-01T02:07:52;5.30;;;2.30;;
2992;SDS011;1506;48.932;9.478;2023-02-01T02:10:23;2.90;;;2.60;;
2992;SDS011;1506;48.932;9.478;2023-02-01T02:13:10;2.10;;;2.00;;
2992;SDS011;1506;48.932;9.478;2023-02-01T02:15:40;2.20;;;2.10;;
2992;SDS011;1506;48.932;9.478;2023-02-01T02:18:17;1.90;;;1.80;;
2992;SDS011;1506;48.932;9.478;2023-02-01T02:21:01;2.67;;;1.73;;
2992;SDS011;1506;48.932;9.478;2023-02-01T02:23:46;2.03;;;1.93;;
2992;SDS011;1506;48.932;9.478;2023-02-01T02:26:24;2.80;;;2.07;;
2992;SDS011;1506;48.932;9.478;2023-02-01T02:40:18;1.80;;;1.70;;
2992;SDS011;1506;48.932;9.478;2023-02-01T02:42:54;1.77;;;1.67;;
2992;SDS011;1506;48.932;9.478;2023-02-01T02:48:52;1.63;;;1.53;;
2992;SDS011;1506;48.932;9.478;2023-02-01T02:51:43;2.23;;;2.13;;
2992;SDS011;1506;48.932;9.478;2023-02-01T02:54:37;1.63;;;1.53;;
2992;SDS011;1506;48.932;9.478;2023-02-01T02:57:26;5.27;;;2.73;;
2992;SDS011;1506;48.932;9.478;2023-02-01T03:00:17;1.70;;;1.60;;
2992;SDS011;1506;48.932;9.478;2023-02-01T03:03:05;1.87;;;1.77;;
2992;SDS011;1506;48.932;9.478;2023-02-01T03:05:51;1.83;;;1.73;;
2992;SDS011;1506;48.932;9.478;2023-02-01T03:08:20;2.13;;;2.03;;
2992;SDS011;1506;48.932;9.478;2023-02-01T03:13:38;2.20;;;2.10;;
2992;SDS011;1506;48.932;9.478;2023-02-01T03:16:30;2.00;;;1.90;;
2992;SDS011;1506;48.932;9.478;2023-02-01T03:21:48;2.00;;;1.90;;
2992;SDS011;1506;48.932;9.478;2023-02-01T03:27:15;4.23;;;2.13;;
2992;SDS011;1506;48.932;9.478;2023-02-01T03:32:45;1.60;;;1.50;;
2992;SDS011;1506;48.932;9.478;2023-02-01T03:35:32;1.50;;;1.40;;
2992;SDS011;1506;48.932;9.478;2023-02-01T03:41:29;2.37;;;2.27;;
2992;SDS011;1506;48.932;9.478;2023-02-01T03:46:40;3.53;;;1.53;;
2992;SDS011;1506;48.932;9.478;2023-02-01T03:49:16;2.30;;;2.10;;
2992;SDS011;1506;48.932;9.478;2023-02-01T03:51:56;2.07;;;1.97;;
2992;SDS011;1506;48.932;9.478;2023-02-01T03:54:26;2.90;;;2.63;;
2992;SDS011;1506;48.932;9.478;2023-02-01T03:56:55;2.33;;;2.23;;
2992;SDS011;1506;48.932;9.478;2023-02-01T03:59:24;2.20;;;2.03;;
2992;SDS011;1506;48.932;9.478;2023-02-01T04:01:51;2.60;;;2.50;;
2992;SDS011;1506;48.932;9.478;2023-02-01T04:04:19;2.67;;;2.30;;
2992;SDS011;1506;48.932;9.478;2023-02-01T04:06:51;2.40;;;2.30;;
2992;SDS011;1506;48.932;9.478;2023-02-01T04:09:19;6.27;;;4.10;;
2992;SDS011;1506;48.932;9.478;2023-02-01T04:11:46;3.27;;;3.00;;
2992;SDS011;1506;48.932;9.478;2023-02-01T04:14:13;3.53;;;2.87;;
2992;SDS011;1506;48.932;9.478;2023-02-01T04:16:41;2.80;;;2.43;;
2992;SDS011;1506;48.932;9.478;2023-02-01T04:19:08;2.07;;;1.97;;
2992;SDS011;1506;48.932;9.478;2023-02-01T04:21:36;2.27;;;2.17;;
2992;SDS011;1506;48.932;9.478;2023-02-01T04:24:03;3.10;;;2.90;;
2992;SDS011;1506;48.932;9.478;2023-02-01T04:26:31;2.80;;;2.60;;
2992;SDS011;1506;48.932;9.478;2023-02-01T04:28:59;1.77;;;1.67;;
2992;SDS011;1506;48.932;9.478;2023-02-01T04:31:26;2.70;;;2.50;;
2992;SDS011;1506;48.932;9.478;2023-02-01T04:33:54;2.17;;;2.07;;
2992;SDS011;1506;48.932;9.478;2023-02-01T04:36:23;2.70;;;2.50;;
2992;SDS011;1506;48.932;9.478;2023-02-01T04:38:51;2.70;;;2.30;;
2992;SDS011;1506;48.932;9.478;2023-02-01T04:41:19;2.33;;;2.23;;
2992;SDS011;1506;48.932;9.478;2023-02-01T04:43:49;2.70;;;2.30;;
2992;SDS011;1506;48.932;9.478;2023-02-01T04:46:18;2.43;;;2.23;;
2992;SDS011;1506;48.932;9.478;2023-02-01T04:48:46;2.47;;;2.37;;
2992;SDS011;1506;48.932;9.478;2023-02-01T04:51:13;1.90;;;1.80;;
2992;SDS011;1506;48.932;9.478;2023-02-01T04:53:41;1.93;;;1.83;;
2992;SDS011;1506;48.932;9.478;2023-02-01T04:56:08;2.60;;;2.50;;
2992;SDS011;1506;48.932;9.478;2023-02-01T04:58:36;2.80;;;2.60;;
2992;SDS011;1506;48.932;9.478;2023-02-01T05:01:04;2.80;;;2.60;;
2992;SDS011;1506;48.932;9.478;2023-02-01T05:03:32;3.03;;;2.93;;
2992;SDS011;1506;48.932;9.478;2023-02-01T05:06:00;2.90;;;2.73;;
2992;SDS011;1506;48.932;9.478;2023-02-01T05:08:30;2.13;;;2.03;;
2992;SDS011;1506;48.932;9.478;2023-02-01T05:10:58;2.60;;;2.40;;
2992;SDS011;1506;48.932;9.478;2023-02-01T05:13:28;2.43;;;2.20;;
2992;SDS011;1506;48.932;9.478;2023-02-01T05:16:15;3.13;;;2.93;;
2992;SDS011;1506;48.932;9.478;2023-02-01T05:18:43;2.33;;;2.23;;
2992;SDS011;1506;48.932;9.478;2023-02-01T05:21:10;3.23;;;3.13;;
2992;SDS011;1506;48.932;9.478;2023-02-01T05:23:37;3.10;;;2.90;;
2992;SDS011;1506;48.932;9.478;2023-02-01T05:26:24;3.17;;;2.80;;
2992;SDS011;1506;48.932;9.478;2023-02-01T05:28:51;3.40;;;3.17;;
2992;SDS011;1506;48.932;9.478;2023-02-01T05:31:19;2.57;;;2.37;;
2992;SDS011;1506;48.932;9.478;2023-02-01T05:33:46;3.10;;;2.90;;
2992;SDS011;1506;48.932;9.478;2023-02-01T05:36:14;4.17;;;3.70;;
2992;SDS011;1506;48.932;9.478;2023-02-01T05:38:41;3.00;;;2.80;;
2992;SDS011;1506;48.932;9.478;2023-02-01T05:41:09;3.40;;;3.20;;
2992;SDS011;1506;48.932;9.478;2023-02-01T05:43:36;3.20;;;3.00;;
2992;SDS011;1506;48.932;9.478;2023-02-01T05:46:04;3.40;;;3.20;;
2992;SDS011;1506;48.932;9.478;2023-02-01T05:48:31;12.87;;;5.20;;
2992;SDS011;1506;48.932;9.478;2023-02-01T05:50:59;6.70;;;4.20;;
2992;SDS011;1506;48.932;9.478;2023-02-01T05:53:25;6.80;;;2.93;;
2992;SDS011;1506;48.932;9.478;2023-02-01T05:55:52;2.70;;;2.50;;
2992;SDS011;1506;48.932;9.478;2023-02-01T05:58:19;2.93;;;2.67;;
2992;SDS011;1506;48.932;9.478;2023-02-01T06:00:47;3.00;;;2.90;;
2992;SDS011;1506;48.932;9.478;2023-02-01T06:03:13;3.70;;;2.97;;
2992;SDS011;1506;48.932;9.478;2023-02-01T06:05:43;3.93;;;3.60;;
2992;SDS011;1506;48.932;9.478;2023-02-01T06:08:11;4.60;;;4.20;;
2992;SDS011;1506;48.932;9.478;2023-02-01T06:10:39;5.07;;;4.67;;
2992;SDS011;1506;48.932;9.478;2023-02-01T06:13:06;7.20;;;4.53;;
2992;SDS011;1506;48.932;9.478;2023-02-01T06:15:33;10.60;;;5.30;;
2992;SDS011;1506;48.932;9.478;2023-02-01T06:18:01;3.10;;;2.87;;
2992;SDS011;1506;48.932;9.478;2023-02-01T06:20:29;7.80;;;4.13;;
2992;SDS011;1506;48.932;9.478;2023-02-01T06:22:56;4.97;;;3.93;;
2992;SDS011;1506;48.932;9.478;2023-02-01T06:25:23;2.43;;;2.33;;
2992;SDS011;1506;48.932;9.478;2023-02-01T06:27:51;2.70;;;2.60;;
2992;SDS011;1506;48.932;9.478;2023-02-01T06:30:18;3.00;;;2.80;;
2992;SDS011;1506;48.932;9.478;2023-02-01T06:32:49;5.17;;;2.40;;
2992;SDS011;1506;48.932;9.478;2023-02-01T06:35:20;3.80;;;3.10;;
2992;SDS011;1506;48.932;9.478;2023-02-01T06:37:47;8.03;;;3.50;;
2992;SDS011;1506;48.932;9.478;2023-02-01T06:40:14;6.03;;;3.40;;
2992;SDS011;1506;48.932;9.478;2023-02-01T06:42:42;5.30;;;3.27;;
2992;SDS011;1506;48.932;9.478;2023-02-01T06:45:09;2.83;;;2.63;;
2992;SDS011;1506;48.932;9.478;2023-02-01T06:47:36;5.47;;;3.17;;
2992;SDS011;1506;48.932;9.478;2023-02-01T06:50:03;7.47;;;3.57;;
2992;SDS011;1506;48.932;9.478;2023-02-01T06:52:31;3.70;;;3.40;;
2992;SDS011;1506;48.932;9.478;2023-02-01T06:54:58;3.70;;;3.40;;
2992;SDS011;1506;48.932;9.478;2023-02-01T06:57:26;4.87;;;4.57;;
2992;SDS011;1506;48.932;9.478;2023-02-01T06:59:56;4.17;;;3.77;;
2992;SDS011;1506;48.932;9.478;2023-02-01T07:02:24;3.67;;;3.47;;
2992;SDS011;1506;48.932;9.478;2023-02-01T07:04:52;9.73;;;4.03;;
2992;SDS011;1506;48.932;9.478;2023-02-01T07:07:19;3.60;;;3.40;;
2992;SDS011;1506;48.932;9.478;2023-02-01T07:09:49;4.40;;;4.00;;
2992;SDS011;1506;48.932;9.478;2023-02-01T07:12:16;3.50;;;3.30;;
2992;SDS011;1506;48.932;9.478;2023-02-01T07:14:44;3.50;;;3.37;;
2992;SDS011;1506;48.932;9.478;2023-02-01T07:17:12;7.17;;;4.07;;
2992;SDS011;1506;48.932;9.478;2023-02-01T07:19:39;9.10;;;4.10;;
2992;SDS011;1506;48.932;9.478;2023-02-01T07:22:06;11.03;;;5.37;;
2992;SDS011;1506;48.932;9.478;2023-02-01T07:24:34;6.17;;;5.53;;
2992;SDS011;1506;48.932;9.478;2023-02-01T07:27:01;7.80;;;5.20;;
2992;SDS011;1506;48.932;9.478;2023-02-01T07:29:29;5.80;;;5.23;;
2992;SDS011;1506;48.932;9.478;2023-02-01T07:31:56;4.83;;;4.03;;
2992;SDS011;1506;48.932;9.478;2023-02-01T07:34:24;5.20;;;4.87;;
2992;SDS011;1506;48.932;9.478;2023-02-01T07:36:51;9.77;;;5.87;;
2992;SDS011;1506;48.932;9.478;2023-02-01T07:39:18;9.80;;;5.57;;
2992;SDS011;1506;48.932;9.478;2023-02-01T07:41:46;13.00;;;5.43;;
2992;SDS011;1506;48.932;9.478;2023-02-01T07:44:13;6.43;;;5.80;;
2992;SDS011;1506;48.932;9.478;2023-02-01T07:46:41;8.57;;;4.90;;
2992;SDS011;1506;48.932;9.478;2023-02-01T07:49:09;11.10;;;5.10;;
2992;SDS011;1506;48.932;9.478;2023-02-01T07:51:36;16.33;;;7.03;;
2992;SDS011;1506;48.932;9.478;2023-02-01T07:54:03;6.90;;;5.90;;
2992;SDS011;1506;48.932;9.478;2023-02-01T07:56:30;8.50;;;6.83;;
2992;SDS011;1506;48.932;9.478;2023-02-01T07:58:57;17.37;;;7.53;;
2992;SDS011;1506;48.932;9.478;2023-02-01T08:01:27;14.63;;;7.70;;
2992;SDS011;1506;48.932;9.478;2023-02-01T08:06:28;10.00;;;6.37;;
2992;SDS011;1506;48.932;9.478;2023-02-01T08:09:00;7.27;;;6.67;;
2992;SDS011;1506;48.932;9.478;2023-02-01T08:11:28;14.60;;;7.53;;
2992;SDS011;1506;48.932;9.478;2023-02-01T08:13:55;14.30;;;6.00;;
2992;SDS011;1506;48.932;9.478;2023-02-01T08:16:23;18.43;;;6.57;;
2992;SDS011;1506;48.932;9.478;2023-02-01T08:18:51;22.87;;;8.57;;
2992;SDS011;1506;48.932;9.478;2023-02-01T08:21:20;18.80;;;7.50;;
2992;SDS011;1506;48.932;9.478;2023-02-01T08:23:51;8.90;;;6.00;;
2992;SDS011;1506;48.932;9.478;2023-02-01T08:26:25;15.63;;;7.13;;
2992;SDS011;1506;48.932;9.478;2023-02-01T08:28:56;15.50;;;7.53;;
2992;SDS011;1506;48.932;9.478;2023-02-01T08:31:26;13.47;;;7.73;;
2992;SDS011;1506;48.932;9.478;2023-02-01T08:33:56;19.27;;;10.13;;
2992;SDS011;1506;48.932;9.478;2023-02-01T08:36:26;14.60;;;7.13;;
2992;SDS011;1506;48.932;9.478;2023-02-01T08:38:55;10.50;;;6.20;;
2992;SDS011;1506;48.932;9.478;2023-02-01T08:41:24;20.30;;;6.97;;
2992;SDS011;1506;48.932;9.478;2023-02-01T08:43:55;17.20;;;6.50;;
2992;SDS011;1506;48.932;9.478;2023-02-01T08:46:23;16.73;;;6.47;;
2992;SDS011;1506;48.932;9.478;2023-02-01T08:48:50;10.07;;;6.50;;
2992;SDS011;1506;48.932;9.478;2023-02-01T08:51:18;7.43;;;6.60;;
2992;SDS011;1506;48.932;9.478;2023-02-01T08:53:47;10.00;;;5.73;;
2992;SDS011;1506;48.932;9.478;2023-02-01T08:56:16;9.40;;;5.40;;
2992;SDS011;1506;48.932;9.478;2023-02-01T08:58:43;7.83;;;4.33;;
2992;SDS011;1506;48.932;9.478;2023-02-01T09:01:12;6.53;;;5.23;;
2992;SDS011;1506;48.932;9.478;2023-02-01T09:03:43;9.20;;;4.37;;
2992;SDS011;1506;48.932;9.478;2023-02-01T09:06:12;8.67;;;5.90;;
2992;SDS011;1506;48.932;9.478;2023-02-01T09:08:41;4.47;;;4.20;;
2992;SDS011;1506;48.932;9.478;2023-02-01T09:11:15;12.13;;;5.33;;
2992;SDS011;1506;48.932;9.478;2023-02-01T09:13:47;11.10;;;5.60;;
2992;SDS011;1506;48.932;9.478;2023-02-01T09:16:16;7.80;;;5.70;;
2992;SDS011;1506;48.932;9.478;2023-02-01T09:18:46;18.03;;;6.60;;
2992;SDS011;1506;48.932;9.478;2023-02-01T09:21:33;9.10;;;5.00;;
2992;SDS011;1506;48.932;9.478;2023-02-01T09:24:03;12.80;;;5.50;;
2992;SDS011;1506;48.932;9.478;2023-02-01T09:26:33;18.03;;;6.80;;
2992;SDS011;1506;48.932;9.478;2023-02-01T09:29:02;7.10;;;4.00;;
2992;SDS011;1506;48.932;9.478;2023-02-01T09:31:34;5.37;;;4.87;;
2992;SDS011;1506;48.932;9.478;2023-02-01T09:34:06;8.43;;;3.37;;
2992;SDS011;1506;48.932;9.478;2023-02-01T09:36:35;8.90;;;3.60;;
2992;SDS011;1506;48.932;9.478;2023-02-01T09:39:03;3.90;;;2.53;;
2992;SDS011;1506;48.932;9.478;2023-02-01T09:47:17;15.47;;;4.03;;
2992;SDS011;1506;48.932;9.478;2023-02-01T09:52:38;7.13;;;3.73;;
2992;SDS011;1506;48.932;9.478;2023-02-01T09:55:15;4.50;;;3.43;;
2992;SDS011;1506;48.932;9.478;2023-02-01T09:57:49;7.37;;;4.77;;
2992;SDS011;1506;48.932;9.478;2023-02-01T10:00:23;10.63;;;5.47;;
2992;SDS011;1506;48.932;9.478;2023-02-01T10:02:55;14.73;;;4.37;;
2992;SDS011;1506;48.932;9.478;2023-02-01T10:05:30;13.23;;;5.83;;
2992;SDS011;1506;48.932;9.478;2023-02-01T10:16:51;13.83;;;3.90;;
2992;SDS011;1506;48.932;9.478;2023-02-01T10:19:33;14.10;;;3.80;;
2992;SDS011;1506;48.932;9.478;2023-02-01T10:27:59;8.40;;;4.10;;
2992;SDS011;1506;48.932;9.478;2023-02-01T10:30:34;11.33;;;2.87;;
2992;SDS011;1506;48.932;9.478;2023-02-01T10:33:17;14.33;;;3.40;;
2992;SDS011;1506;48.932;9.478;2023-02-01T10:36:04;16.13;;;3.60;;
2992;SDS011;1506;48.932;9.478;2023-02-01T10:39:00;13.30;;;4.20;;
2992;SDS011;1506;48.932;9.478;2023-02-01T10:41:31;10.20;;;3.80;;
2992;SDS011;1506;48.932;9.478;2023-02-01T10:44:03;13.77;;;3.80;;
2992;SDS011;1506;48.932;9.478;2023-02-01T10:46:36;16.00;;;5.87;;
2992;SDS011;1506;48.932;9.478;2023-02-01T10:49:09;31.63;;;5.80;;
2992;SDS011;1506;48.932;9.478;2023-02-01T10:54:16;13.70;;;3.73;;
2992;SDS011;1506;48.932;9.478;2023-02-01T10:56:48;19.20;;;5.07;;
2992;SDS011;1506;48.932;9.478;2023-02-01T10:59:19;14.40;;;2.90;;
2992;SDS011;1506;48.932;9.478;2023-02-01T11:01:57;13.33;;;3.03;;
2992;SDS011;1506;48.932;9.478;2023-02-01T11:04:32;9.53;;;3.30;;
2992;SDS011;1506;48.932;9.478;2023-02-01T11:07:17;22.73;;;2.97;;
2992;SDS011;1506;48.932;9.478;2023-02-01T11:09:50;17.30;;;3.70;;
2992;SDS011;1506;48.932;9.478;2023-02-01T11:15:14;4.80;;;2.97;;
2992;SDS011;1506;48.932;9.478;2023-02-01T11:17:48;9.40;;;3.70;;
2992;SDS011;1506;48.932;9.478;2023-02-01T11:20:19;9.67;;;3.13;;
2992;SDS011;1506;48.932;9.478;2023-02-01T11:22:54;31.20;;;4.13;;
2992;SDS011;1506;48.932;9.478;2023-02-01T11:25:22;10.57;;;3.20;;
2992;SDS011;1506;48.932;9.478;2023-02-01T11:27:51;12.47;;;3.40;;
2992;SDS011;1506;48.932;9.478;2023-02-01T11:30:34;7.10;;;2.40;;
2992;SDS011;1506;48.932;9.478;2023-02-01T11:33:07;22.53;;;4.53;;
2992;SDS011;1506;48.932;9.478;2023-02-01T11:35:40;5.73;;;3.00;;
2992;SDS011;1506;48.932;9.478;2023-02-01T11:38:15;7.27;;;3.67;;
2992;SDS011;1506;48.932;9.478;2023-02-01T11:40:53;5.23;;;2.30;;
2992;SDS011;1506;48.932;9.478;2023-02-01T11:43:25;9.43;;;3.20;;
2992;SDS011;1506;48.932;9.478;2023-02-01T11:48:26;11.73;;;3.30;;
2992;SDS011;1506;48.932;9.478;2023-02-01T12:08:20;4.83;;;2.70;;
2992;SDS011;1506;48.932;9.478;2023-02-01T12:14:19;19.00;;;3.63;;
2992;SDS011;1506;48.932;9.478;2023-02-01T12:23:18;6.47;;;2.43;;
2992;SDS011;1506;48.932;9.478;2023-02-01T12:36:44;11.03;;;3.60;;
2992;SDS011;1506;48.932;9.478;2023-02-01T12:42:03;3.30;;;2.60;;
2992;SDS011;1506;48.932;9.478;2023-02-01T12:47:52;8.13;;;3.43;;
2992;SDS011;1506;48.932;9.478;2023-02-01T12:50:26;18.20;;;3.53;;
2992;SDS011;1506;48.932;9.478;2023-02-01T12:54:18;12.17;;;3.20;;
2992;SDS011;1506;48.932;9.478;2023-02-01T12:56:33;5.87;;;2.07;;
2992;SDS011;1506;48.932;9.478;2023-02-01T12:59:02;10.40;;;2.43;;
2992;SDS011;1506;48.932;9.478;2023-02-01T13:01:35;10.50;;;2.87;;
2992;SDS011;1506;48.932;9.478;2023-02-01T13:04:15;11.17;;;3.40;;
2992;SDS011;1506;48.932;9.478;2023-02-01T13:07:09;12.33;;;4.37;;
2992;SDS011;1506;48.932;9.478;2023-02-01T13:09:47;6.23;;;3.00;;
2992;SDS011;1506;48.932;9.478;2023-02-01T13:13:08;3.23;;;2.67;;
2992;SDS011;1506;48.932;9.478;2023-02-01T13:15:21;7.80;;;3.00;;
2992;SDS011;1506;48.932;9.478;2023-02-01T13:18:09;9.67;;;2.70;;
2992;SDS011;1506;48.932;9.478;2023-02-01T13:21:25;9.00;;;2.30;;
2992;SDS011;1506;48.932;9.478;2023-02-01T13:23:38;6.40;;;3.30;;
2992;SDS011;1506;48.932;9.478;2023-02-01T13:26:06;7.80;;;2.70;;
2992;SDS011;1506;48.932;9.478;2023-02-01T13:29:20;9.47;;;3.60;;
2992;SDS011;1506;48.932;9.478;2023-02-01T13:34:30;4.30;;;2.80;;
2992;SDS011;1506;48.932;9.478;2023-02-01T13:42:41;17.27;;;4.07;;
2992;SDS011;1506;48.932;9.478;2023-02-01T13:45:20;8.13;;;2.63;;
2992;SDS011;1506;48.932;9.478;2023-02-01T13:47:54;14.87;;;3.00;;
2992;SDS011;1506;48.932;9.478;2023-02-01T13:52:58;14.33;;;3.60;;
2992;SDS011;1506;48.932;9.478;2023-02-01T13:55:29;10.20;;;3.33;;
2992;SDS011;1506;48.932;9.478;2023-02-01T13:58:02;8.40;;;3.13;;
2992;SDS011;1506;48.932;9.478;2023-02-01T14:00:39;7.23;;;3.07;;
2992;SDS011;1506;48.932;9.478;2023-02-01T14:03:16;9.03;;;5.13;;
2992;SDS011;1506;48.932;9.478;2023-02-01T14:11:06;5.63;;;3.10;;
2992;SDS011;1506;48.932;9.478;2023-02-01T14:13:57;3.97;;;2.40;;
2992;SDS011;1506;48.932;9.478;2023-02-01T14:19:28;4.67;;;3.37;;
2992;SDS011;1506;48.932;9.478;2023-02-01T14:22:30;19.30;;;3.73;;
2992;SDS011;1506;48.932;9.478;2023-02-01T14:24:51;4.20;;;2.47;;
2992;SDS011;1506;48.932;9.478;2023-02-01T14:27:21;10.40;;;3.10;;
2992;SDS011;1506;48.932;9.478;2023-02-01T14:29:56;8.20;;;1.67;;
2992;SDS011;1506;48.932;9.478;2023-02-01T14:32:33;5.20;;;2.40;;
2992;SDS011;1506;48.932;9.478;2023-02-01T14:37:52;9.33;;;2.50;;
2992;SDS011;1506;48.932;9.478;2023-02-01T14:40:26;9.53;;;3.43;;
2992;SDS011;1506;48.932;9.478;2023-02-01T14:42:54;12.40;;;3.13;;
2992;SDS011;1506;48.932;9.478;2023-02-01T14:47:55;6.90;;;3.17;;
2992;SDS011;1506;48.932;9.478;2023-02-01T14:50:46;9.40;;;2.50;;
2992;SDS011;1506;48.932;9.478;2023-02-01T14:53:16;3.93;;;2.27;;
2992;SDS011;1506;48.932;9.478;2023-02-01T14:58:44;16.63;;;3.37;;
2992;SDS011;1506;48.932;9.478;2023-02-01T15:01:31;9.90;;;2.20;;
2992;SDS011;1506;48.932;9.478;2023-02-01T15:12:05;33.07;;;4.00;;
2992;SDS011;1506;48.932;9.478;2023-02-01T15:17:41;15.90;;;2.70;;
2992;SDS011;1506;48.932;9.478;2023-02-01T15:20:22;15.07;;;3.63;;
2992;SDS011;1506;48.932;9.478;2023-02-01T15:25:32;13.43;;;4.57;;
2992;SDS011;1506;48.932;9.478;2023-02-01T15:28:03;20.00;;;3.30;;
2992;SDS011;1506;48.932;9.478;2023-02-01T15:30:33;3.67;;;2.80;;
2992;SDS011;1506;48.932;9.478;2023-02-01T15:33:05;7.50;;;2.73;;
2992;SDS011;1506;48.932;9.478;2023-02-01T15:35:49;8.80;;;3.57;;
2992;SDS011;1506;48.932;9.478;2023-02-01T15:43:35;5.80;;;2.33;;
2992;SDS011;1506;48.932;9.478;2023-02-01T15:46:13;6.20;;;3.37;;
2992;SDS011;1506;48.932;9.478;2023-02-01T15:48:45;19.00;;;2.17;;
2992;SDS011;1506;48.932;9.478;2023-02-01T15:51:16;5.50;;;3.03;;
2992;SDS011;1506;48.932;9.478;2023-02-01T15:53:55;17.43;;;3.23;;
2992;SDS011;1506;48.932;9.478;2023-02-01T15:56:35;10.07;;;2.83;;
2992;SDS011;1506;48.932;9.478;2023-02-01T15:59:04;9.50;;;2.40;;
2992;SDS011;1506;48.932;9.478;2023-02-01T16:01:41;10.13;;;2.67;;
2992;SDS011;1506;48.932;9.478;2023-02-01T16:04:27;15.73;;;2.90;;
2992;SDS011;1506;48.932;9.478;2023-02-01T16:07:00;4.60;;;2.93;;
2992;SDS011;1506;48.932;9.478;2023-02-01T16:09:39;13.17;;;2.70;;
2992;SDS011;1506;48.932;9.478;2023-02-01T16:12:49;9.93;;;3.20;;
2992;SDS011;1506;48.932;9.478;2023-02-01T16:15:09;8.13;;;2.30;;
2992;SDS011;1506;48.932;9.478;2023-02-01T16:17:36;5.90;;;3.03;;
2992;SDS011;1506;48.932;9.478;2023-02-01T16:20:04;13.23;;;2.87;;
2992;SDS011;1506;48.932;9.478;2023-02-01T16:22:31;17.60;;;3.50;;
2992;SDS011;1506;48.932;9.478;2023-02-01T16:24:59;15.67;;;2.90;;
2992;SDS011;1506;48.932;9.478;2023-02-01T16:27:28;11.53;;;2.80;;
2992;SDS011;1506;48.932;9.478;2023-02-01T16:29:55;20.20;;;4.60;;
2992;SDS011;1506;48.932;9.478;2023-02-01T16:32:23;7.43;;;2.13;;
2992;SDS011;1506;48.932;9.478;2023-02-01T16:34:50;5.70;;;1.93;;
2992;SDS011;1506;48.932;9.478;2023-02-01T16:37:20;10.93;;;3.00;;
2992;SDS011;1506;48.932;9.478;2023-02-01T16:39:50;4.87;;;2.60;;
2992;SDS011;1506;48.932;9.478;2023-02-01T16:42:18;12.60;;;3.57;;
2992;SDS011;1506;48.932;9.478;2023-02-01T16:44:45;9.53;;;3.03;;
2992;SDS011;1506;48.932;9.478;2023-02-01T16:47:19;5.70;;;3.53;;
2992;SDS011;1506;48.932;9.478;2023-02-01T16:49:49;9.20;;;2.73;;
2992;SDS011;1506;48.932;9.478;2023-02-01T16:52:21;6.43;;;3.70;;
2992;SDS011;1506;48.932;9.478;2023-02-01T16:54:50;5.13;;;2.70;;
2992;SDS011;1506;48.932;9.478;2023-02-01T16:57:19;12.07;;;3.60;;
2992;SDS011;1506;48.932;9.478;2023-02-01T16:59:50;10.63;;;2.70;;
2992;SDS011;1506;48.932;9.478;2023-02-01T17:02:18;12.63;;;3.30;;
2992;SDS011;1506;48.932;9.478;2023-02-01T17:04:47;6.50;;;3.33;;
2992;SDS011;1506;48.932;9.478;2023-02-01T17:07:15;13.87;;;4.60;;
2992;SDS011;1506;48.932;9.478;2023-02-01T17:09:45;7.83;;;3.20;;
2992;SDS011;1506;48.932;9.478;2023-02-01T17:12:26;4.60;;;2.63;;
2992;SDS011;1506;48.932;9.478;2023-02-01T17:14:56;20.00;;;3.60;;
2992;SDS011;1506;48.932;9.478;2023-02-01T17:17:25;3.93;;;2.83;;
2992;SDS011;1506;48.932;9.478;2023-02-01T17:20:04;3.50;;;2.30;;
2992;SDS011;1506;48.932;9.478;2023-02-01T17:22:32;14.00;;;3.30;;
2992;SDS011;1506;48.932;9.478;2023-02-01T17:25:00;14.37;;;3.57;;
2992;SDS011;1506;48.932;9.478;2023-02-01T17:27:27;3.63;;;2.73;;
2992;SDS011;1506;48.932;9.478;2023-02-01T17:29:55;12.17;;;3.13;;
2992;SDS011;1506;48.932;9.478;2023-02-01T17:32:23;9.00;;;3.40;;
2992;SDS011;1506;48.932;9.478;2023-02-01T17:34:51;11.27;;;3.13;;
2992;SDS011;1506;48.932;9.478;2023-02-01T17:37:27;15.60;;;4.03;;
2992;SDS011;1506;48.932;9.478;2023-02-01T17:39:56;10.93;;;3.20;;
2992;SDS011;1506;48.932;9.478;2023-02-01T17:42:24;7.90;;;3.40;;
2992;SDS011;1506;48.932;9.478;2023-02-01T17:44:57;12.03;;;4.03;;
2992;SDS011;1506;48.932;9.478;2023-02-01T17:47:36;6.93;;;3.40;;
2992;SDS011;1506;48.932;9.478;2023-02-01T17:50:04;8.33;;;3.37;;
2992;SDS011;1506;48.932;9.478;2023-02-01T17:52:31;12.03;;;2.33;;
2992;SDS011;1506;48.932;9.478;2023-02-01T17:55:01;26.97;;;3.80;;
2992;SDS011;1506;48.932;9.478;2023-02-01T17:57:32;4.83;;;3.30;;
2992;SDS011;1506;48.932;9.478;2023-02-01T17:59:59;5.93;;;3.03;;
2992;SDS011;1506;48.932;9.478;2023-02-01T18:02:29;11.57;;;3.90;;
2992;SDS011;1506;48.932;9.478;2023-02-01T18:04:57;7.03;;;2.70;;
2992;SDS011;1506;48.932;9.478;2023-02-01T18:07:25;8.97;;;2.47;;
2992;SDS011;1506;48.932;9.478;2023-02-01T18:09:53;3.27;;;2.23;;
2992;SDS011;1506;48.932;9.478;2023-02-01T18:12:21;7.30;;;2.90;;
2992;SDS011;1506;48.932;9.478;2023-02-01T18:14:51;18.53;;;3.97;;
2992;SDS011;1506;48.932;9.478;2023-02-01T18:17:19;11.27;;;2.63;;
2992;SDS011;1506;48.932;9.478;2023-02-01T18:19:46;9.70;;;2.90;;